Time;durP1;ratioP1;P1;durP2;ratioP2;P2;SDS_P1;SDS_P2;PMS_P1;PMS_P2;Temp;Humidity;BMP_temperature;BMP_pressure;BME280_temperature;BME280_humidity;BME280_pressure;Samples;Min_cycle;Max_cycle;Signal;HPM_P1;HPM_P2
2022/05/13 00:01:15;;;;;;;14.18;5.65;;;12.10;77.40;;;;;;4809888;29;20400;-67
2022/05/13 00:03:41;;;;;;;12.10;4.40;;;12.10;77.40;;;;;;4819854;29;20038;-67
2022/05/13 00:06:07;;;;;;;17.53;5.20;;;12.10;77.40;;;;;;4842985;29;20580;-67
2022/05/13 00:08:33;;;;;;;20.45;5.53;;;12.10;77.30;;;;;;4850717;29;20075;-67
2022/05/13 00:11:00;;;;;;;15.27;4.57;;;12.00;77.50;;;;;;4854371;29;20045;-67
2022/05/13 00:13:26;;;;;;;13.00;5.07;;;12.10;77.70;;;;;;4849410;29;20304;-67
2022/05/13 00:15:52;;;;;;;19.57;4.83;;;12.00;77.80;;;;;;4817390;29;20782;-67
2022/05/13 00:18:18;;;;;;;25.43;6.53;;;12.00;77.90;;;;;;4850853;29;20069;-67
2022/05/13 00:20:44;;;;;;;17.27;5.30;;;12.00;78.20;;;;;;4834197;29;20910;-67
2022/05/13 00:23:10;;;;;;;18.13;4.67;;;12.00;78.30;;;;;;4840583;29;20141;-67
2022/05/13 00:25:37;;;;;;;19.55;5.47;;;12.00;78.30;;;;;;4850064;29;20046;-67
2022/05/13 00:28:05;;;;;;;18.88;5.13;;;12.00;78.00;;;;;;4829931;29;20125;-67
2022/05/13 00:30:34;;;;;;;17.67;4.83;;;12.00;78.00;;;;;;4842260;29;20077;-67
2022/05/13 00:33:00;;;;;;;18.85;4.80;;;12.00;78.00;;;;;;4824828;29;20305;-67
2022/05/13 00:35:26;;;;;;;15.03;4.40;;;12.00;78.10;;;;;;4844518;29;20046;-67
2022/05/13 00:37:52;;;;;;;18.58;5.60;;;12.00;78.40;;;;;;4839669;29;20379;-67
2022/05/13 00:40:22;;;;;;;19.50;5.57;;;12.00;78.10;;;;;;4849553;29;20086;-67
2022/05/13 00:42:49;;;;;;;19.10;5.47;;;12.00;78.40;;;;;;4837839;29;20046;-67
2022/05/13 00:45:16;;;;;;;17.50;5.43;;;12.00;78.60;;;;;;4847438;29;20728;-67
2022/05/13 00:47:43;;;;;;;22.08;5.50;;;12.00;78.40;;;;;;4843221;29;20536;-67
2022/05/13 00:50:11;;;;;;;22.23;5.55;;;12.00;78.50;;;;;;4827360;29;20042;-67
2022/05/13 00:52:40;;;;;;;22.73;6.63;;;12.00;78.50;;;;;;4835311;29;20053;-67
2022/05/13 00:55:12;;;;;;;22.88;7.18;;;12.00;78.60;;;;;;4851423;29;20053;-67
2022/05/13 00:57:39;;;;;;;21.95;7.78;;;12.00;78.70;;;;;;4843097;29;20047;-67
2022/05/13 01:00:08;;;;;;;21.25;5.90;;;12.00;78.90;;;;;;4806368;29;20284;-67
2022/05/13 01:02:35;;;;;;;20.08;6.65;;;12.10;78.90;;;;;;4847315;29;20046;-67
2022/05/13 01:05:05;;;;;;;22.85;6.43;;;12.10;79.00;;;;;;4857920;29;20056;-67
2022/05/13 01:07:32;;;;;;;25.10;7.07;;;12.10;79.10;;;;;;4838295;29;20085;-67
2022/05/13 01:10:01;;;;;;;20.55;6.00;;;12.10;79.20;;;;;;4850797;29;20046;-67
2022/05/13 01:12:35;;;;;;;15.82;6.35;;;12.10;79.00;;;;;;4824291;29;20066;-68
2022/05/13 01:15:14;;;;;;;21.98;6.85;;;12.10;79.20;;;;;;4803971;29;20497;-68
2022/05/13 01:20:28;;;;;;;;;;;12.00;79.40;;;;;;4826249;29;20141;-68
2022/05/13 01:22:58;;;;;;;25.48;6.63;;;12.00;79.70;;;;;;4853539;29;19924;-67
2022/05/13 01:25:26;;;;;;;29.08;6.85;;;12.00;79.70;;;;;;4825795;29;20057;-67
2022/05/13 01:27:53;;;;;;;19.58;7.43;;;12.00;79.50;;;;;;4819169;29;20050;-67
2022/05/13 01:30:28;;;;;;;21.77;6.50;;;12.00;79.60;;;;;;4824685;29;20043;-67
2022/05/13 01:32:55;;;;;;;18.67;7.47;;;12.10;79.80;;;;;;4835800;29;20390;-67
2022/05/13 01:35:22;;;;;;;24.77;7.22;;;12.10;79.90;;;;;;4857721;29;20038;-67
2022/05/13 01:37:48;;;;;;;25.35;7.25;;;12.10;79.60;;;;;;4856145;29;20543;-67
2022/05/13 01:40:14;;;;;;;25.77;6.88;;;12.10;79.90;;;;;;4831128;29;20045;-67
2022/05/13 01:42:40;;;;;;;26.60;6.83;;;12.10;79.60;;;;;;4831446;29;20526;-67
2022/05/13 01:45:07;;;;;;;27.42;6.88;;;12.10;79.90;;;;;;4827783;29;20053;-67
2022/05/13 01:47:34;;;;;;;23.77;6.75;;;12.10;80.10;;;;;;4849003;29;20663;-67
2022/05/13 01:50:00;;;;;;;24.02;6.35;;;12.10;80.10;;;;;;4848704;29;20056;-67
2022/05/13 01:52:26;;;;;;;27.60;7.85;;;12.10;80.00;;;;;;4839091;29;20047;-67
2022/05/13 01:54:52;;;;;;;30.23;6.80;;;12.10;80.00;;;;;;4816639;29;20658;-67
2022/05/13 01:57:18;;;;;;;25.10;6.83;;;12.10;80.00;;;;;;4825549;29;20051;-67
2022/05/13 01:59:44;;;;;;;23.60;6.97;;;12.10;80.00;;;;;;4828339;29;20094;-67
2022/05/13 02:02:10;;;;;;;21.30;7.63;;;12.10;80.10;;;;;;4835330;29;20050;-67
2022/05/13 02:04:37;;;;;;;22.13;6.63;;;12.10;79.80;;;;;;4813590;29;20042;-67
2022/05/13 02:07:03;;;;;;;26.35;6.90;;;12.10;79.90;;;;;;4855092;29;20058;-67
2022/05/13 02:09:29;;;;;;;27.13;6.85;;;12.10;79.80;;;;;;4850591;29;20452;-67
2022/05/13 02:11:55;;;;;;;21.80;6.93;;;12.10;79.80;;;;;;4852211;29;20039;-67
2022/05/13 02:14:21;;;;;;;25.70;6.77;;;12.10;79.60;;;;;;4840186;29;20045;-67
2022/05/13 02:16:47;;;;;;;34.10;7.60;;;12.00;79.40;;;;;;4849313;29;20101;-67
2022/05/13 02:19:12;;;;;;;28.63;6.67;;;12.10;79.20;;;;;;4857618;29;20066;-67
2022/05/13 02:21:38;;;;;;;22.30;6.30;;;12.10;79.10;;;;;;4837386;29;20077;-67
2022/05/13 02:24:05;;;;;;;28.10;6.70;;;12.10;79.00;;;;;;4844363;29;20049;-67
2022/05/13 02:26:31;;;;;;;20.57;6.77;;;12.10;78.60;;;;;;4859720;29;20050;-67
2022/05/13 02:29:01;;;;;;;21.47;6.70;;;12.10;78.40;;;;;;4833108;29;20311;-67
2022/05/13 02:31:30;;;;;;;25.80;7.15;;;12.10;78.10;;;;;;4854026;29;20291;-67
2022/05/13 02:33:57;;;;;;;18.77;6.03;;;12.10;77.80;;;;;;4816108;29;20053;-68
2022/05/13 02:36:22;;;;;;;24.92;7.13;;;12.10;77.60;;;;;;4823257;29;20046;-68
2022/05/13 02:38:48;;;;;;;27.73;7.23;;;12.10;77.50;;;;;;4856307;29;20045;-67
2022/05/13 02:41:14;;;;;;;23.90;6.43;;;12.10;77.40;;;;;;4825030;29;20046;-68
2022/05/13 02:43:48;;;;;;;27.23;7.53;;;12.10;77.50;;;;;;4825059;29;20069;-67
2022/05/13 02:46:19;;;;;;;23.50;6.13;;;12.10;77.40;;;;;;4822741;29;20084;-67
2022/05/13 02:48:45;;;;;;;18.50;6.07;;;12.10;77.20;;;;;;4815956;29;20133;-67
2022/05/13 02:51:12;;;;;;;21.77;4.83;;;12.10;77.10;;;;;;4829456;29;20727;-67
2022/05/13 02:53:37;;;;;;;18.85;6.50;;;12.10;77.00;;;;;;4830781;29;20079;-67
2022/05/13 02:56:04;;;;;;;26.30;8.73;;;12.10;77.10;;;;;;4824581;29;20073;-68
2022/05/13 02:58:30;;;;;;;19.70;6.53;;;12.10;77.00;;;;;;4823632;29;20046;-68
2022/05/13 03:00:56;;;;;;;25.77;6.43;;;12.10;77.00;;;;;;4823722;29;20735;-67
2022/05/13 03:03:21;;;;;;;26.93;7.37;;;12.10;77.10;;;;;;4822873;29;20453;-67
2022/05/13 03:05:47;;;;;;;23.43;6.27;;;12.10;77.10;;;;;;4836193;29;20294;-67
2022/05/13 03:08:13;;;;;;;22.70;6.43;;;12.10;77.20;;;;;;4848688;29;20042;-67
2022/05/13 03:10:39;;;;;;;21.40;6.20;;;12.10;77.40;;;;;;4827405;29;20048;-67
2022/05/13 03:13:07;;;;;;;23.47;6.67;;;12.10;77.40;;;;;;4859328;29;20363;-67
2022/05/13 03:15:33;;;;;;;33.80;8.68;;;12.10;77.10;;;;;;4851551;29;20065;-67
2022/05/13 03:17:59;;;;;;;18.77;6.72;;;12.10;77.20;;;;;;4841308;29;20148;-67
2022/05/13 03:20:25;;;;;;;23.40;5.97;;;12.10;77.30;;;;;;4827768;29;20058;-68
2022/05/13 03:22:52;;;;;;;27.63;7.55;;;12.00;77.50;;;;;;4849228;29;20045;-67
2022/05/13 03:25:20;;;;;;;26.50;9.33;;;12.00;77.60;;;;;;4851064;29;20062;-67
2022/05/13 03:27:46;;;;;;;24.05;7.43;;;12.00;77.60;;;;;;4835180;29;20296;-67
2022/05/13 03:30:14;;;;;;;23.40;6.00;;;12.00;77.60;;;;;;4831770;29;20083;-67
2022/05/13 03:32:40;;;;;;;26.95;5.88;;;12.00;77.50;;;;;;4812312;29;20046;-67
2022/05/13 03:35:08;;;;;;;20.20;6.77;;;12.00;77.30;;;;;;4823942;29;20061;-67
2022/05/13 03:37:35;;;;;;;14.73;5.63;;;11.90;76.80;;;;;;4849980;29;20083;-67
2022/05/13 03:40:01;;;;;;;18.67;5.25;;;12.00;76.40;;;;;;4825087;29;20054;-68
2022/05/13 03:42:26;;;;;;;18.20;5.13;;;12.00;76.10;;;;;;4841090;29;20054;-68
2022/05/13 03:44:52;;;;;;;16.83;4.93;;;12.00;74.60;;;;;;4824332;29;20046;-68
2022/05/13 03:47:18;;;;;;;14.67;4.23;;;12.00;74.20;;;;;;4852912;29;20049;-67
2022/05/13 03:49:44;;;;;;;14.07;4.40;;;12.10;74.10;;;;;;4828773;29;20098;-67
2022/05/13 03:52:11;;;;;;;14.17;4.70;;;12.10;73.90;;;;;;4834991;29;20038;-67
2022/05/13 03:54:38;;;;;;;13.60;5.03;;;12.10;73.90;;;;;;4836658;29;20038;-67
2022/05/13 03:57:06;;;;;;;15.73;4.60;;;12.10;73.40;;;;;;4850903;29;20129;-67
2022/05/13 03:59:32;;;;;;;10.60;3.90;;;12.10;73.30;;;;;;4842720;29;20435;-68
2022/05/13 04:01:58;;;;;;;11.93;3.53;;;12.10;73.00;;;;;;4849535;29;20109;-67
2022/05/13 04:04:24;;;;;;;10.73;3.30;;;12.10;72.80;;;;;;4834756;29;20766;-67
2022/05/13 04:09:35;;;;;;;11.00;3.50;;;12.10;72.20;;;;;;4816313;29;20372;-68
2022/05/13 04:17:30;;;;;;;14.43;4.00;;;12.10;72.00;;;;;;4850716;29;20303;-67
2022/05/13 04:19:56;;;;;;;13.93;5.23;;;12.10;71.90;;;;;;4843215;29;20303;-67
2022/05/13 04:22:24;;;;;;;11.67;3.77;;;12.10;71.70;;;;;;4835508;29;20054;-67
2022/05/13 04:24:52;;;;;;;12.77;3.20;;;12.10;71.90;;;;;;4853424;29;20334;-68
2022/05/13 04:27:18;;;;;;;15.83;4.07;;;12.10;71.80;;;;;;4826502;29;20661;-68
2022/05/13 04:29:44;;;;;;;8.07;3.70;;;12.10;71.80;;;;;;4824096;29;20307;-68
2022/05/13 04:32:10;;;;;;;9.30;3.13;;;12.10;71.60;;;;;;4823413;29;21058;-68
2022/05/13 04:34:36;;;;;;;9.70;3.53;;;12.10;71.30;;;;;;4825330;29;20348;-68
2022/05/13 04:37:02;;;;;;;9.20;4.07;;;12.10;71.40;;;;;;4820911;29;20050;-68
2022/05/13 04:39:29;;;;;;;11.53;3.40;;;12.10;70.80;;;;;;4817614;29;20738;-68
2022/05/13 04:44:39;;;;;;;9.33;3.47;;;12.10;70.50;;;;;;4833808;29;20311;-68
2022/05/13 04:48:15;;;;;;;7.47;3.03;;;12.20;70.50;;;;;;4831669;29;20321;-68
2022/05/13 04:49:52;;;;;;;7.03;2.53;;;12.20;70.40;;;;;;4854485;29;20101;-68
2022/05/13 04:52:17;;;;;;;9.33;2.80;;;12.20;70.40;;;;;;4840581;29;20372;-68
2022/05/13 04:54:43;;;;;;;9.03;3.53;;;12.20;70.20;;;;;;4834550;29;20069;-68
2022/05/13 04:57:09;;;;;;;10.40;3.37;;;12.20;70.20;;;;;;4823849;29;20057;-68
2022/05/13 04:59:34;;;;;;;11.43;2.83;;;12.30;70.00;;;;;;4837100;29;20085;-68
2022/05/13 05:02:00;;;;;;;6.87;3.30;;;12.30;69.90;;;;;;4823465;29;20047;-68
2022/05/13 05:04:26;;;;;;;8.07;3.57;;;12.30;70.00;;;;;;4844964;29;20049;-68
2022/05/13 05:06:51;;;;;;;10.10;2.70;;;12.40;69.70;;;;;;4829489;29;20158;-67
2022/05/13 05:09:17;;;;;;;10.83;3.10;;;12.40;69.30;;;;;;4816953;29;20053;-67
2022/05/13 05:11:43;;;;;;;9.37;2.67;;;12.40;69.50;;;;;;4848454;29;20050;-67
2022/05/13 05:14:08;;;;;;;8.33;2.93;;;12.40;69.70;;;;;;4820737;29;20141;-68
2022/05/13 05:16:34;;;;;;;9.67;3.47;;;12.50;69.50;;;;;;4827099;29;20393;-68
2022/05/13 05:19:00;;;;;;;9.17;3.80;;;12.50;69.70;;;;;;4847086;29;20107;-68
2022/05/13 05:21:26;;;;;;;8.27;2.93;;;12.60;69.70;;;;;;4816942;29;20058;-68
2022/05/13 05:23:52;;;;;;;13.60;4.07;;;12.60;69.80;;;;;;4804666;29;20049;-68
2022/05/13 05:26:17;;;;;;;8.73;2.53;;;12.60;69.70;;;;;;4827504;29;20291;-68
2022/05/13 05:28:44;;;;;;;11.83;3.03;;;12.70;69.80;;;;;;4825620;29;20042;-68
2022/05/13 05:31:11;;;;;;;9.33;3.40;;;12.70;69.40;;;;;;4849568;29;20038;-68
2022/05/13 05:33:38;;;;;;;8.27;3.20;;;12.70;69.30;;;;;;4818456;29;20435;-68
2022/05/13 05:36:05;;;;;;;9.03;3.20;;;12.80;69.40;;;;;;4828232;29;20314;-68
2022/05/13 05:38:31;;;;;;;8.53;2.70;;;12.90;68.90;;;;;;4825638;29;20451;-68
2022/05/13 05:40:58;;;;;;;9.00;2.80;;;13.00;68.30;;;;;;4819596;29;20370;-68
2022/05/13 05:43:24;;;;;;;9.33;3.90;;;13.00;68.20;;;;;;4824610;29;20175;-68
2022/05/13 05:45:50;;;;;;;10.37;3.13;;;13.10;67.90;;;;;;4840994;29;20370;-68
2022/05/13 05:48:24;;;;;;;10.07;2.87;;;13.10;67.70;;;;;;4854957;29;20052;-68
2022/05/13 05:50:52;;;;;;;10.70;3.50;;;13.10;67.80;;;;;;4851325;29;20053;-68
2022/05/13 05:57:13;;;;;;;9.07;2.60;;;13.20;67.20;;;;;;4860863;29;20295;-68
2022/05/13 05:58:49;;;;;;;11.48;3.58;;;13.20;67.10;;;;;;4819906;29;20785;-68
2022/05/13 06:01:14;;;;;;;9.30;4.30;;;13.20;67.40;;;;;;4838735;29;20050;-68
2022/05/13 06:03:40;;;;;;;12.03;2.80;;;13.30;67.30;;;;;;4831813;29;20046;-68
2022/05/13 06:06:09;;;;;;;8.90;2.93;;;13.30;67.50;;;;;;4832664;29;20110;-68
2022/05/13 06:08:35;;;;;;;11.40;3.83;;;13.30;67.30;;;;;;4849555;29;20645;-68
2022/05/13 06:11:01;;;;;;;9.93;2.80;;;13.40;67.30;;;;;;4836343;29;20283;-68
2022/05/13 06:13:27;;;;;;;10.87;3.93;;;13.40;67.10;;;;;;4820343;29;20065;-68
2022/05/13 06:15:52;;;;;;;7.87;3.50;;;13.50;66.90;;;;;;4833946;29;20049;-68
2022/05/13 06:18:18;;;;;;;8.97;3.60;;;13.50;66.70;;;;;;4817732;29;20062;-68
2022/05/13 06:20:44;;;;;;;12.90;3.87;;;13.60;66.20;;;;;;4835552;29;20058;-68
2022/05/13 06:23:10;;;;;;;9.73;2.60;;;13.60;66.30;;;;;;4819526;29;20105;-68
2022/05/13 06:25:36;;;;;;;8.30;2.67;;;13.60;66.10;;;;;;4837457;29;20054;-68
2022/05/13 06:28:02;;;;;;;10.67;2.70;;;13.70;66.10;;;;;;4818176;29;20042;-68
2022/05/13 06:30:30;;;;;;;9.53;3.73;;;13.70;65.80;;;;;;4829349;29;20641;-68
2022/05/13 06:32:57;;;;;;;11.07;3.87;;;13.70;65.80;;;;;;4851406;29;20046;-68
2022/05/13 06:35:25;;;;;;;9.50;3.20;;;13.70;65.90;;;;;;4826742;29;20291;-68
2022/05/13 06:37:53;;;;;;;7.03;2.90;;;13.70;66.00;;;;;;4805159;29;20292;-68
2022/05/13 06:40:22;;;;;;;12.93;3.77;;;13.80;65.70;;;;;;4817158;29;20296;-68
2022/05/13 06:42:49;;;;;;;11.63;9.70;;;13.90;65.60;;;;;;4819435;29;20726;-68
2022/05/13 06:45:15;;;;;;;9.17;2.87;;;14.00;65.40;;;;;;4834310;29;20340;-68
2022/05/13 06:47:41;;;;;;;10.47;5.13;;;14.10;65.80;;;;;;4817989;29;20340;-68
2022/05/13 06:50:09;;;;;;;10.17;4.10;;;14.20;65.50;;;;;;4818905;29;20328;-68
2022/05/13 06:52:35;;;;;;;9.33;2.90;;;14.30;64.80;;;;;;4818042;29;20517;-68
2022/05/13 06:55:02;;;;;;;9.60;2.23;;;14.50;64.50;;;;;;4830682;29;20391;-68
2022/05/13 06:57:28;;;;;;;7.53;2.37;;;14.60;63.80;;;;;;4816901;29;20299;-68
2022/05/13 06:59:54;;;;;;;9.23;2.60;;;14.60;63.50;;;;;;4844871;29;20660;-68
2022/05/13 07:02:22;;;;;;;6.83;2.17;;;14.70;63.70;;;;;;4816730;29;20419;-68
2022/05/13 07:04:48;;;;;;;9.10;3.57;;;14.70;63.50;;;;;;4824724;29;20457;-68
2022/05/13 07:07:14;;;;;;;7.67;3.03;;;14.80;63.60;;;;;;4827976;29;20302;-68
2022/05/13 07:09:40;;;;;;;8.37;2.80;;;14.90;63.00;;;;;;4820478;29;20034;-68
2022/05/13 07:12:07;;;;;;;7.30;3.77;;;14.80;63.30;;;;;;4820951;29;20443;-68
2022/05/13 07:14:34;;;;;;;9.20;3.70;;;14.90;62.90;;;;;;4848261;29;20088;-68
2022/05/13 07:17:01;;;;;;;6.10;4.17;;;14.80;62.70;;;;;;4815705;29;20306;-68
2022/05/13 07:19:27;;;;;;;9.43;3.30;;;14.70;62.60;;;;;;4818417;29;20295;-68
2022/05/13 07:21:52;;;;;;;8.10;2.80;;;14.70;62.80;;;;;;4818855;29;20452;-68
2022/05/13 07:24:18;;;;;;;7.33;3.30;;;14.80;62.80;;;;;;4847904;29;20039;-68
2022/05/13 07:26:44;;;;;;;11.93;8.50;;;14.90;62.90;;;;;;4831732;29;20179;-68
2022/05/13 07:29:10;;;;;;;5.57;2.43;;;15.10;63.00;;;;;;4846695;29;20527;-69
2022/05/13 07:31:36;;;;;;;8.50;3.43;;;15.20;63.00;;;;;;4801030;29;20039;-69
2022/05/13 07:34:02;;;;;;;10.57;4.37;;;15.20;62.20;;;;;;4817610;29;20049;-69
2022/05/13 07:36:28;;;;;;;12.50;11.27;;;15.20;62.10;;;;;;4816628;29;20145;-68
2022/05/13 07:41:38;;;;;;;9.57;2.40;;;15.20;61.10;;;;;;4847789;29;20288;-69
2022/05/13 07:44:06;;;;;;;10.03;3.23;;;15.10;61.80;;;;;;4818515;29;20306;-69
2022/05/13 07:46:32;;;;;;;12.43;11.13;;;14.90;62.10;;;;;;4816278;29;20053;-69
2022/05/13 07:48:57;;;;;;;17.17;15.57;;;14.80;62.10;;;;;;4816002;29;20352;-69
2022/05/13 07:51:26;;;;;;;12.30;6.00;;;14.80;63.00;;;;;;4818250;29;20038;-69
2022/05/13 07:53:52;;;;;;;12.33;5.20;;;15.00;64.40;;;;;;4846542;29;20527;-68
2022/05/13 07:56:18;;;;;;;9.40;3.83;;;15.30;62.70;;;;;;4818074;29;20819;-69
2022/05/13 07:58:43;;;;;;;7.60;3.73;;;15.40;61.60;;;;;;4819112;29;20310;-69
2022/05/13 08:01:09;;;;;;;9.50;3.87;;;15.40;61.50;;;;;;4803028;29;20046;-69
2022/05/13 08:03:35;;;;;;;6.87;2.30;;;15.60;61.90;;;;;;4832906;29;20053;-69
2022/05/13 08:06:05;;;;;;;7.87;2.73;;;15.70;61.70;;;;;;4848042;29;20038;-69
2022/05/13 08:08:36;;;;;;;21.23;19.73;;;15.70;60.80;;;;;;4816465;29;20095;-69
2022/05/13 08:11:05;;;;;;;7.53;3.63;;;15.60;60.30;;;;;;4816713;29;20287;-69
2022/05/13 08:13:32;;;;;;;9.57;4.70;;;15.50;61.70;;;;;;4818366;29;20445;-69
2022/05/13 08:15:58;;;;;;;6.07;3.30;;;15.70;61.70;;;;;;4846135;29;20739;-69
2022/05/13 08:18:24;;;;;;;8.53;3.30;;;15.80;61.30;;;;;;4829834;29;20406;-69
2022/05/13 08:20:51;;;;;;;15.13;6.57;;;15.90;60.60;;;;;;4846945;29;20352;-69
2022/05/13 08:23:17;;;;;;;11.37;10.33;;;15.80;60.40;;;;;;4847002;29;20307;-69
2022/05/13 08:25:44;;;;;;;7.50;2.53;;;15.90;60.80;;;;;;4844008;29;20283;-69
2022/05/13 08:28:10;;;;;;;5.80;2.70;;;15.90;60.50;;;;;;4809220;29;20292;-69
2022/05/13 08:30:38;;;;;;;9.17;4.33;;;16.10;60.60;;;;;;4847291;29;20298;-69
2022/05/13 08:33:10;;;;;;;12.17;5.80;;;16.30;60.90;;;;;;4848729;29;20630;-69
2022/05/13 08:35:37;;;;;;;8.00;3.43;;;16.30;60.30;;;;;;4844926;29;20355;-69
2022/05/13 08:38:04;;;;;;;7.87;5.13;;;16.40;59.00;;;;;;4836493;29;20375;-69
2022/05/13 08:40:43;;;;;;;9.60;3.53;;;16.20;59.20;;;;;;4848950;29;20302;-69
2022/05/13 08:43:22;;;;;;;10.27;4.43;;;16.30;59.80;;;;;;4829791;29;20322;-69
2022/05/13 08:46:09;;;;;;;9.33;4.83;;;16.50;60.30;;;;;;4816016;29;20302;-69
2022/05/13 08:48:51;;;;;;;8.27;3.07;;;16.40;58.60;;;;;;4829543;29;20295;-69
2022/05/13 08:51:46;;;;;;;17.13;15.70;;;16.40;58.70;;;;;;4829944;29;20323;-69
2022/05/13 08:54:15;;;;;;;8.93;4.90;;;16.30;59.50;;;;;;4806947;29;20331;-69
2022/05/13 08:56:45;;;;;;;9.17;4.37;;;16.50;59.90;;;;;;4828063;29;20054;-69
2022/05/13 08:59:19;;;;;;;11.97;4.63;;;16.40;59.90;;;;;;4801181;29;20288;-69
2022/05/13 09:01:49;;;;;;;10.15;3.80;;;16.50;59.60;;;;;;4822065;29;20313;-69
2022/05/13 09:04:44;;;;;;;16.70;15.20;;;16.50;59.90;;;;;;4828562;29;20174;-69
2022/05/13 09:07:20;;;;;;;10.35;6.40;;;16.50;60.00;;;;;;4819580;29;20300;-69
2022/05/13 09:09:52;;;;;;;26.53;24.40;;;16.50;59.70;;;;;;4814581;29;20504;-69
2022/05/13 09:12:21;;;;;;;12.00;6.37;;;16.00;60.00;;;;;;4800324;29;20658;-69
2022/05/13 09:15:18;;;;;;;11.30;4.87;;;16.00;61.10;;;;;;4838283;29;20467;-69
2022/05/13 09:17:49;;;;;;;10.10;4.27;;;16.00;61.50;;;;;;4823486;29;20390;-69
2022/05/13 09:20:22;;;;;;;14.80;6.77;;;16.00;60.60;;;;;;4822948;29;20306;-69
2022/05/13 09:22:52;;;;;;;10.80;4.13;;;15.70;61.80;;;;;;4810034;29;20298;-69
2022/05/13 09:25:26;;;;;;;11.10;4.87;;;15.80;61.90;;;;;;4825753;29;20314;-69
2022/05/13 09:28:05;;;;;;;9.10;4.63;;;16.10;61.20;;;;;;4810577;29;20335;-69
2022/05/13 09:30:37;;;;;;;15.27;13.77;;;16.50;60.80;;;;;;4844695;29;20115;-69
2022/05/13 09:33:32;;;;;;;11.07;7.17;;;16.60;59.60;;;;;;4811696;29;20284;-69
2022/05/13 09:36:29;;;;;;;15.98;4.78;;;16.70;60.60;;;;;;4841289;29;20300;-69
2022/05/13 09:39:14;;;;;;;10.03;5.13;;;17.00;59.60;;;;;;4825786;29;20042;-69
2022/05/13 09:41:40;;;;;;;12.05;9.45;;;17.00;58.60;;;;;;4798952;29;20313;-69
2022/05/13 09:44:12;;;;;;;11.07;5.43;;;16.90;58.80;;;;;;4810699;29;20125;-69
2022/05/13 09:46:39;;;;;;;23.13;21.27;;;17.00;59.00;;;;;;4841189;29;20057;-69
2022/05/13 09:49:24;;;;;;;18.73;16.97;;;17.10;58.30;;;;;;4811193;29;20351;-69
2022/05/13 09:52:11;;;;;;;9.55;6.63;;;16.90;58.20;;;;;;4824186;29;20873;-69
2022/05/13 09:54:42;;;;;;;20.40;6.30;;;17.00;58.60;;;;;;4839684;29;20054;-69
2022/05/13 09:57:19;;;;;;;7.50;5.03;;;17.10;59.00;;;;;;4822805;29;20296;-70
2022/05/13 10:00:06;;;;;;;11.63;7.17;;;17.10;58.40;;;;;;4809834;29;20811;-69
2022/05/13 10:02:40;;;;;;;61.40;57.90;;;17.10;57.40;;;;;;4841447;29;20295;-70
2022/05/13 10:05:24;;;;;;;120.72;113.80;;;17.20;57.90;;;;;;4828655;29;20450;-69
2022/05/13 10:07:53;;;;;;;38.93;36.53;;;17.20;56.60;;;;;;4840361;29;20057;-69
2022/05/13 10:16:05;;;;;;;30.93;28.93;;;17.30;58.20;;;;;;4843082;29;20292;-69
2022/05/13 10:18:34;;;;;;;32.27;29.93;;;17.30;58.90;;;;;;4841556;29;20322;-69
2022/05/13 10:21:08;;;;;;;52.43;49.60;;;17.80;58.30;;;;;;4843306;29;20296;-69
2022/05/13 10:23:42;;;;;;;128.80;120.85;;;18.10;57.10;;;;;;4831640;29;20553;-69
2022/05/13 10:26:15;;;;;;;87.45;82.20;;;17.60;56.80;;;;;;4809789;29;20346;-69
2022/05/13 10:28:44;;;;;;;47.73;44.90;;;17.60;56.80;;;;;;4808754;29;20114;-69
2022/05/13 10:31:16;;;;;;;44.90;42.03;;;17.50;57.20;;;;;;4850299;29;20398;-69
2022/05/13 10:34:10;;;;;;;23.97;22.07;;;17.30;56.20;;;;;;4829863;29;20338;-69
2022/05/13 10:36:54;;;;;;;37.20;34.87;;;17.20;58.00;;;;;;4819333;29;20340;-69
2022/05/13 10:39:42;;;;;;;21.97;20.07;;;17.30;58.10;;;;;;4845482;29;20295;-69
2022/05/13 10:42:12;;;;;;;26.33;24.57;;;17.20;58.00;;;;;;4820596;29;20291;-68
2022/05/13 10:44:50;;;;;;;45.53;42.37;;;17.00;58.20;;;;;;4838850;29;20343;-69
2022/05/13 10:47:34;;;;;;;13.87;12.07;;;16.80;57.90;;;;;;4825442;29;20290;-69
2022/05/13 10:50:00;;;;;;;12.60;9.23;;;16.90;58.60;;;;;;4839516;29;20297;-69
2022/05/13 10:53:01;;;;;;;18.60;16.53;;;17.10;57.70;;;;;;4827690;29;20287;-69
2022/05/13 10:55:51;;;;;;;30.33;27.57;;;17.40;57.90;;;;;;4804656;29;20643;-69
2022/05/13 10:58:58;;;;;;;19.37;17.97;;;17.40;58.70;;;;;;4851046;29;20773;-69
2022/05/13 11:01:29;;;;;;;48.53;45.13;;;17.60;58.20;;;;;;4805163;29;20392;-69
2022/05/13 11:04:01;;;;;;;30.93;28.63;;;17.60;56.50;;;;;;4844800;29;20839;-69
2022/05/13 11:06:51;;;;;;;11.03;7.57;;;17.40;56.70;;;;;;4844494;29;20292;-69
2022/05/13 11:09:38;;;;;;;13.87;12.73;;;17.80;57.50;;;;;;4836124;29;20315;-69
2022/05/13 11:12:39;;;;;;;53.07;49.63;;;17.80;55.40;;;;;;4846941;29;20352;-69
2022/05/13 11:15:26;;;;;;;13.23;6.93;;;17.90;54.70;;;;;;4802350;29;20291;-69
2022/05/13 11:18:04;;;;;;;17.07;14.67;;;17.80;55.80;;;;;;4844609;29;20306;-69
2022/05/13 11:20:48;;;;;;;25.40;23.43;;;17.70;55.80;;;;;;4846998;29;21358;-69
2022/05/13 11:23:38;;;;;;;16.83;15.13;;;17.50;55.10;;;;;;4809329;29;20808;-69
2022/05/13 11:26:16;;;;;;;12.27;8.30;;;17.40;56.70;;;;;;4846679;29;20283;-69
2022/05/13 11:28:47;;;;;;;13.17;12.17;;;17.60;56.70;;;;;;4842146;29;20754;-69
2022/05/13 11:31:22;;;;;;;16.90;15.37;;;18.10;56.90;;;;;;4846876;29;20292;-69
2022/05/13 11:34:26;;;;;;;17.42;16.08;;;18.50;55.10;;;;;;4826819;29;20621;-70
2022/05/13 11:37:02;;;;;;;20.37;18.50;;;18.40;53.10;;;;;;4814134;29;20754;-69
2022/05/13 11:39:37;;;;;;;39.73;36.90;;;18.00;54.10;;;;;;4797244;29;20471;-69
2022/05/13 11:42:05;;;;;;;23.48;21.50;;;17.50;56.20;;;;;;4803158;29;20374;-69
2022/05/13 11:44:51;;;;;;;17.10;15.33;;;17.10;57.80;;;;;;4855718;29;20051;-69
2022/05/13 11:47:23;;;;;;;83.20;77.87;;;17.00;59.50;;;;;;4795524;29;20403;-69
2022/05/13 11:49:49;;;;;;;22.43;20.33;;;17.20;59.90;;;;;;4855073;29;20283;-69
2022/05/13 11:52:15;;;;;;;12.60;10.63;;;17.30;58.40;;;;;;4813798;29;20374;-69
2022/05/13 11:54:42;;;;;;;18.00;16.33;;;17.50;57.90;;;;;;4820154;29;20395;-69
2022/05/13 11:57:18;;;;;;;10.60;8.60;;;17.80;57.10;;;;;;4819711;29;20070;-69
2022/05/13 11:59:49;;;;;;;29.83;27.40;;;17.90;56.80;;;;;;4843666;29;20314;-69
2022/05/13 12:02:30;;;;;;;23.87;21.77;;;17.80;56.40;;;;;;4844994;29;20292;-69
2022/05/13 12:05:10;;;;;;;18.37;16.80;;;17.40;56.80;;;;;;4800807;29;20318;-69
2022/05/13 12:08:14;;;;;;;16.13;14.93;;;17.50;56.50;;;;;;4827468;29;20285;-69
2022/05/13 12:10:46;;;;;;;39.03;36.40;;;17.30;55.00;;;;;;4848256;29;20644;-69
2022/05/13 12:14:01;;;;;;;39.47;36.20;;;17.00;55.40;;;;;;4817962;29;20703;-69
2022/05/13 12:16:45;;;;;;;14.23;12.90;;;16.90;56.70;;;;;;4798035;29;20391;-69
2022/05/13 12:19:14;;;;;;;23.55;21.33;;;17.40;56.50;;;;;;4857944;29;20307;-69
2022/05/13 12:22:10;;;;;;;13.77;11.73;;;17.70;54.70;;;;;;4804763;29;20088;-69
2022/05/13 12:24:54;;;;;;;15.95;14.38;;;18.00;55.50;;;;;;4821118;29;20407;-70
2022/05/13 12:27:44;;;;;;;12.30;10.90;;;18.10;53.30;;;;;;4849087;29;20043;-69
2022/05/13 12:30:45;;;;;;;40.73;37.93;;;18.00;52.70;;;;;;4849821;29;20322;-69
2022/05/13 12:33:23;;;;;;;26.83;24.73;;;17.90;53.60;;;;;;4859918;29;21365;-70
2022/05/13 12:39:02;;;;;;;;;;;17.60;53.00;;;;;;4848106;29;20299;-69
2022/05/13 12:41:42;;;;;;;13.83;11.90;;;17.80;54.50;;;;;;4850111;29;19924;-69
2022/05/13 12:44:30;;;;;;;15.00;13.50;;;18.20;53.40;;;;;;4823791;29;20319;-69
2022/05/13 12:47:14;;;;;;;19.93;18.33;;;18.20;52.50;;;;;;4818814;29;20376;-69
2022/05/13 12:49:49;;;;;;;51.57;48.40;;;18.20;52.50;;;;;;4819810;29;20421;-70
2022/05/13 12:52:27;;;;;;;33.35;30.92;;;18.40;53.00;;;;;;4815850;29;20315;-70
2022/05/13 12:55:05;;;;;;;15.83;14.50;;;18.50;50.70;;;;;;4818546;29;20488;-70
2022/05/13 12:58:04;;;;;;;14.63;10.37;;;18.30;52.00;;;;;;4818423;29;20288;-70
2022/05/13 13:00:34;;;;;;;10.07;8.03;;;18.60;51.00;;;;;;4829978;29;20319;-70
2022/05/13 13:03:05;;;;;;;10.03;9.03;;;18.50;52.00;;;;;;4831765;29;20816;-70
2022/05/13 13:05:33;;;;;;;18.87;17.33;;;18.60;51.70;;;;;;4842376;29;20335;-70
2022/05/13 13:08:13;;;;;;;12.37;10.37;;;18.70;50.40;;;;;;4806501;29;20292;-70
2022/05/13 13:10:51;;;;;;;22.97;20.97;;;18.50;50.70;;;;;;4816566;29;20284;-70
2022/05/13 13:13:50;;;;;;;21.97;20.13;;;18.50;50.90;;;;;;4849222;29;20796;-70
2022/05/13 13:16:22;;;;;;;24.80;22.50;;;18.50;52.20;;;;;;4821301;29;20666;-70
2022/05/13 13:19:14;;;;;;;12.07;10.67;;;18.30;51.20;;;;;;4832331;29;20344;-70
2022/05/13 13:21:41;;;;;;;10.43;9.37;;;18.20;49.90;;;;;;4811210;29;21262;-69
2022/05/13 13:24:20;;;;;;;16.63;15.10;;;18.00;51.60;;;;;;4819048;29;20316;-70
2022/05/13 13:26:49;;;;;;;15.03;13.67;;;17.70;52.60;;;;;;4829391;29;20291;-70